עמוד ראשי
METAR-TAF:

METAR-TAF

שדות תעופה :

Tacna, פרו

קו רוחב: 18-04S, קו אורך: 070-18W, גובה: 468מטר

תצפית מזג אוויר נוכחית

הדו"ח נערך לפני 21דקות, בשעה 00:00 UTC
רוח 6קשר מכיוון דרום-מערב
טמפרטורת 15 צלסיוס
לחות 94%
לחץ 1014 hPa
ראות: 6000מטר
עננים פזורים בגובה 1000רגל
מעונן בגובה 2000רגל

METAR: SPTN 210000Z 23006KT 6000 SCT010 OVC020 15/14 Q1014 RMK PP000

זמן: 19:21 (00:21 UTC)

תחזית

הדו"ח נערך לפני 1 שעות ו 21דקות, בשעה 23:00 UTC
תחזית בתוקף מ 21 ב 00 UTC עד 21 ב 24 UTC
רוח 8קשר מכיוון דרום-מערב
ראות: 6000מטר
עננים פזורים בגובה 700רגל
עננים בינוניים בגובה 1000רגל
מ 21 ב 0200UTC
רוח 3קשר מכיוון דרום
ראות: 3000מטר
עננים פזורים בגובה 1000רגל
אד
מ 21 ב 1530UTC
רוח 3קשר מכיוון מערב
ראות 10 קילומטר או יותר
עננים פזורים בגובה 1200רגל
עננים בינוניים בגובה 2000רגל
יעשה מ
21 ב 17 UTC עד 21 ב 20 UTC
רוח 10קשר מכיוון דרום/דרום-מערב
מעט עננים בגובה 3300רגל

TAF: SPTN 202300Z 2100/2124 23008KT 6000 SCT007 BKN010 TX20/2118Z TN14/2110Z FM210200 19003KT 3000 BR SCT010 FM211530 26003KT 9999 SCT012 BKN020 BECMG 2117/2120 20010KT FEW033

תצפיות ותחזיות מזג אוויר לגבי יותר מ- 4,000 שדות תעופה ברחבי העולם. דוחות METAR ו- TAF.

התחנות הזמינות מסומנות בנקודות צהובות ואדומות על גבי המפה.

העבר את העכבר לנקודה הצבעונית על מנת לראות את שם התחנה.

לאחר מכן, לחץ כדי לראות את תוכן ואת תחזיות מזג האוויר.

כדי לשנות את המפה: לחץ על הכפתורים הירוקים עם הפלוס השחור כדי להתקרב; על הכפתור הירוק עם המקף כדי להתרחק; או בחיצים הירוקים למפות סמוכות.


METAR-TAF: